Time;durP1;ratioP1;P1;durP2;ratioP2;P2;SDS_P1;SDS_P2;PMS_P1;PMS_P2;Temp;Humidity;BMP_temperature;BMP_pressure;BME280_temperature;BME280_humidity;BME280_pressure;Samples;Min_cycle;Max_cycle;Signal;HPM_P1;HPM_P2
2021/04/19 00:01:20;;;;;;;32.57;20.73;;;;;;;;;;4328435;33;20754;-53
2021/04/19 00:03:46;;;;;;;29.00;18.70;;;;;;;;;;4327613;33;20332;-53
2021/04/19 00:06:11;;;;;;;27.50;17.97;;;;;;;;;;4328577;33;20309;-53
2021/04/19 00:08:37;;;;;;;23.77;16.23;;;;;;;;;;4324637;33;20272;-53
2021/04/19 00:11:03;;;;;;;30.30;16.53;;;;;;;;;;4320537;33;20302;-54
2021/04/19 00:13:28;;;;;;;25.63;15.47;;;;;;;;;;4327671;33;20301;-53
2021/04/19 00:15:54;;;;;;;23.30;14.00;;;;;;;;;;4328165;33;20305;-55
2021/04/19 00:18:19;;;;;;;20.20;14.30;;;;;;;;;;4328020;33;20250;-55
2021/04/19 00:20:45;;;;;;;20.33;13.37;;;;;;;;;;4328153;33;20374;-55
2021/04/19 00:23:10;;;;;;;18.47;12.47;;;;;;;;;;4327736;33;20253;-53
2021/04/19 00:25:36;;;;;;;18.77;13.80;;;;;;;;;;4330108;33;20373;-53
2021/04/19 00:28:02;;;;;;;22.80;13.83;;;;;;;;;;4317211;33;20231;-54
2021/04/19 00:30:28;;;;;;;19.23;12.53;;;;;;;;;;4320695;33;20314;-54
2021/04/19 00:32:53;;;;;;;22.33;13.17;;;;;;;;;;4316298;33;20235;-53
2021/04/19 00:35:20;;;;;;;16.63;11.50;;;;;;;;;;4330756;33;20294;-53
2021/04/19 00:37:45;;;;;;;19.03;11.30;;;;;;;;;;4329620;33;20251;-52
2021/04/19 00:40:16;;;;;;;17.47;12.23;;;;;;;;;;4317617;33;20341;-55
2021/04/19 00:42:43;;;;;;;20.67;11.00;;;;;;;;;;4330712;33;20219;-53
2021/04/19 00:45:10;;;;;;;14.57;11.87;;;;;;;;;;4330218;33;20235;-53
2021/04/19 00:47:37;;;;;;;13.77;11.07;;;;;;;;;;4331083;33;20228;-53
2021/04/19 00:50:08;;;;;;;19.60;12.80;;;;;;;;;;4330452;33;20254;-54
2021/04/19 00:52:34;;;;;;;16.37;11.60;;;;;;;;;;4331168;33;20289;-53
2021/04/19 00:54:59;;;;;;;19.67;12.33;;;;;;;;;;4330084;33;20650;-53
2021/04/19 00:57:30;;;;;;;20.40;13.47;;;;;;;;;;4326746;33;20647;-54
2021/04/19 00:59:55;;;;;;;21.70;13.33;;;;;;;;;;4330173;33;20212;-53
2021/04/19 01:02:21;;;;;;;26.60;16.10;;;;;;;;;;4331223;33;20580;-53
2021/04/19 01:04:47;;;;;;;30.13;18.23;;;;;;;;;;4330152;33;20239;-53
2021/04/19 01:07:12;;;;;;;23.07;15.57;;;;;;;;;;4329966;33;20286;-53
2021/04/19 01:09:38;;;;;;;22.43;15.73;;;;;;;;;;4317017;33;20814;-53
2021/04/19 01:12:04;;;;;;;29.23;16.07;;;;;;;;;;4314872;33;20227;-53
2021/04/19 01:14:30;;;;;;;26.37;17.27;;;;;;;;;;4326955;33;20297;-53
2021/04/19 01:16:55;;;;;;;23.60;15.40;;;;;;;;;;4330825;33;20528;-54
2021/04/19 01:19:21;;;;;;;29.53;17.07;;;;;;;;;;4330203;33;20306;-54
2021/04/19 01:21:46;;;;;;;27.07;17.10;;;;;;;;;;4330672;33;20218;-54
2021/04/19 01:24:12;;;;;;;27.17;16.20;;;;;;;;;;4330204;33;20274;-54
2021/04/19 01:26:37;;;;;;;25.63;17.23;;;;;;;;;;4330513;33;20227;-55
2021/04/19 01:29:03;;;;;;;26.60;16.43;;;;;;;;;;4312258;33;20365;-54
2021/04/19 01:31:28;;;;;;;30.00;18.40;;;;;;;;;;4326647;33;20270;-53
2021/04/19 01:33:54;;;;;;;37.37;20.73;;;;;;;;;;4330219;33;20215;-53
2021/04/19 01:36:23;;;;;;;35.20;20.90;;;;;;;;;;4329669;33;20759;-53
2021/04/19 01:38:48;;;;;;;33.23;20.27;;;;;;;;;;4329885;33;20668;-53
2021/04/19 01:41:14;;;;;;;30.67;20.77;;;;;;;;;;4330342;33;20214;-53
2021/04/19 01:43:39;;;;;;;31.87;20.53;;;;;;;;;;4329969;33;20318;-53
2021/04/19 01:46:05;;;;;;;32.57;19.30;;;;;;;;;;4330483;33;20727;-53
2021/04/19 01:48:30;;;;;;;33.37;19.07;;;;;;;;;;4330297;33;20318;-53
2021/04/19 01:50:57;;;;;;;35.83;21.63;;;;;;;;;;4330332;33;20345;-53
2021/04/19 01:53:23;;;;;;;32.60;21.13;;;;;;;;;;4330100;33;20231;-54
2021/04/19 01:55:48;;;;;;;32.10;20.50;;;;;;;;;;4322622;33;20260;-54
2021/04/19 01:58:21;;;;;;;36.93;23.20;;;;;;;;;;4329511;33;20381;-52
2021/04/19 02:01:00;;;;;;;34.70;20.87;;;;;;;;;;4330100;33;20278;-53
2021/04/19 02:03:50;;;;;;;32.10;20.53;;;;;;;;;;4328687;33;20379;-53
2021/04/19 02:06:33;;;;;;;27.73;18.07;;;;;;;;;;4330200;33;20306;-53
2021/04/19 02:09:21;;;;;;;22.60;16.43;;;;;;;;;;4330006;33;20262;-54
2021/04/19 02:11:53;;;;;;;27.30;15.77;;;;;;;;;;4330058;33;20249;-53
2021/04/19 02:14:34;;;;;;;22.87;16.73;;;;;;;;;;4329718;33;20899;-54
2021/04/19 02:17:18;;;;;;;25.27;18.50;;;;;;;;;;4329971;33;20338;-54
2021/04/19 02:19:55;;;;;;;29.13;16.70;;;;;;;;;;4329561;33;20619;-54
2021/04/19 02:22:28;;;;;;;30.77;18.80;;;;;;;;;;4329963;33;20228;-54
2021/04/19 02:25:13;;;;;;;29.57;17.43;;;;;;;;;;4319472;33;20394;-54
2021/04/19 02:27:43;;;;;;;28.57;17.80;;;;;;;;;;4329584;33;20306;-54
2021/04/19 02:30:11;;;;;;;28.90;18.37;;;;;;;;;;4328425;33;20259;-54
2021/04/19 02:32:43;;;;;;;27.53;18.20;;;;;;;;;;4329951;33;20385;-62
2021/04/19 02:35:12;;;;;;;26.67;21.43;;;;;;;;;;4329525;33;20604;-62
2021/04/19 02:37:39;;;;;;;24.27;18.33;;;;;;;;;;4329859;33;20314;-63
2021/04/19 02:40:09;;;;;;;24.93;16.67;;;;;;;;;;4324235;33;20239;-63
2021/04/19 02:42:38;;;;;;;24.47;17.60;;;;;;;;;;4316690;33;20246;-63
2021/04/19 02:45:06;;;;;;;27.90;18.33;;;;;;;;;;4329236;33;20214;-63
2021/04/19 02:47:33;;;;;;;29.73;19.27;;;;;;;;;;4329278;33;20226;-63
2021/04/19 02:50:01;;;;;;;33.70;21.93;;;;;;;;;;4315044;33;20758;-63
2021/04/19 02:52:27;;;;;;;35.30;23.57;;;;;;;;;;4328085;33;20333;-63
2021/04/19 02:54:53;;;;;;;33.13;22.40;;;;;;;;;;4328527;33;20667;-63
2021/04/19 02:57:26;;;;;;;31.27;23.77;;;;;;;;;;4328802;33;20253;-63
2021/04/19 02:59:54;;;;;;;39.40;23.43;;;;;;;;;;4327303;33;20241;-63
2021/04/19 03:02:23;;;;;;;56.37;35.50;;;;;;;;;;4329380;33;20374;-62
2021/04/19 03:04:49;;;;;;;43.23;30.77;;;;;;;;;;4328283;33;20289;-63
2021/04/19 03:07:17;;;;;;;48.60;31.07;;;;;;;;;;4329293;33;20223;-63
2021/04/19 03:09:54;;;;;;;41.07;29.60;;;;;;;;;;4328242;33;20231;-62
2021/04/19 03:12:24;;;;;;;41.03;25.90;;;;;;;;;;4314154;33;20681;-62
2021/04/19 03:15:01;;;;;;;33.37;23.53;;;;;;;;;;4326198;33;20226;-62
2021/04/19 03:17:28;;;;;;;37.03;24.63;;;;;;;;;;4328661;33;20294;-62
2021/04/19 03:20:15;;;;;;;35.27;21.90;;;;;;;;;;4326736;33;20282;-62
2021/04/19 03:22:44;;;;;;;26.93;20.80;;;;;;;;;;4327922;33;20223;-62
2021/04/19 03:25:11;;;;;;;36.07;20.90;;;;;;;;;;4327814;33;20301;-63
2021/04/19 03:27:40;;;;;;;30.47;20.20;;;;;;;;;;4328222;33;20305;-62
2021/04/19 03:30:07;;;;;;;28.27;20.33;;;;;;;;;;4327711;33;20246;-62
2021/04/19 03:32:37;;;;;;;28.13;20.20;;;;;;;;;;4328127;33;20256;-62
2021/04/19 03:35:07;;;;;;;28.20;22.00;;;;;;;;;;4327630;33;20850;-62
2021/04/19 03:37:35;;;;;;;37.23;24.83;;;;;;;;;;4328525;33;20665;-62
2021/04/19 03:40:15;;;;;;;34.40;27.37;;;;;;;;;;4327609;33;20238;-63
2021/04/19 03:42:43;;;;;;;31.37;21.13;;;;;;;;;;4327495;33;20222;-62
2021/04/19 03:45:11;;;;;;;29.93;22.77;;;;;;;;;;4310363;33;20230;-62
2021/04/19 03:47:37;;;;;;;28.00;20.20;;;;;;;;;;4327921;33;20551;-62
2021/04/19 03:50:04;;;;;;;33.90;26.70;;;;;;;;;;4325173;33;20340;-63
2021/04/19 03:52:37;;;;;;;28.20;23.40;;;;;;;;;;4327689;33;20222;-62
2021/04/19 03:55:05;;;;;;;31.50;23.13;;;;;;;;;;4326945;33;20592;-62
2021/04/19 03:57:32;;;;;;;29.83;22.10;;;;;;;;;;4327761;33;20273;-62
2021/04/19 04:00:04;;;;;;;28.77;22.30;;;;;;;;;;4327875;33;20589;-63
2021/04/19 04:02:31;;;;;;;26.10;19.80;;;;;;;;;;4331293;33;20215;-62
2021/04/19 04:04:57;;;;;;;28.23;19.47;;;;;;;;;;4329506;33;20320;-62
2021/04/19 04:07:24;;;;;;;32.03;23.40;;;;;;;;;;4331083;33;20223;-61
2021/04/19 04:09:50;;;;;;;26.20;19.20;;;;;;;;;;4329844;33;20274;-63
2021/04/19 04:12:16;;;;;;;25.43;20.13;;;;;;;;;;4330590;33;20341;-61
2021/04/19 04:14:57;;;;;;;25.63;19.87;;;;;;;;;;4312371;33;20358;-62
2021/04/19 04:17:23;;;;;;;36.80;25.30;;;;;;;;;;4316286;33;20358;-62
2021/04/19 04:19:49;;;;;;;41.93;29.83;;;;;;;;;;4329981;33;20253;-63
2021/04/19 04:22:16;;;;;;;45.27;30.23;;;;;;;;;;4330782;33;20226;-63
2021/04/19 04:24:42;;;;;;;46.93;30.97;;;;;;;;;;4329787;33;20222;-62
2021/04/19 04:27:08;;;;;;;42.33;30.13;;;;;;;;;;4330324;33;20227;-62
2021/04/19 04:29:34;;;;;;;39.50;29.10;;;;;;;;;;4329873;33;20271;-62
2021/04/19 04:32:00;;;;;;;39.80;28.53;;;;;;;;;;4330302;33;20691;-63
2021/04/19 04:34:25;;;;;;;46.10;28.60;;;;;;;;;;4329853;33;20214;-63
2021/04/19 04:36:51;;;;;;;43.60;26.90;;;;;;;;;;4330772;33;20242;-62
2021/04/19 04:39:16;;;;;;;39.70;25.57;;;;;;;;;;4329800;33;20245;-62
2021/04/19 04:41:42;;;;;;;41.23;24.27;;;;;;;;;;4330115;33;20346;-62
2021/04/19 04:44:13;;;;;;;26.43;20.23;;;;;;;;;;4311847;33;20230;-62
2021/04/19 04:47:16;;;;;;;46.03;23.60;;;;;;;;;;4309267;33;20253;-62
2021/04/19 04:50:01;;;;;;;32.80;21.30;;;;;;;;;;4329542;33;20216;-63
2021/04/19 04:52:30;;;;;;;67.80;30.13;;;;;;;;;;4315576;33;20278;-62
2021/04/19 04:54:56;;;;;;;27.10;18.90;;;;;;;;;;4328211;33;20206;-62
2021/04/19 04:57:24;;;;;;;56.90;35.90;;;;;;;;;;4330135;33;20261;-62
2021/04/19 04:59:51;;;;;;;24.10;18.80;;;;;;;;;;4329338;33;20233;-63
2021/04/19 05:02:24;;;;;;;44.30;27.70;;;;;;;;;;4329027;33;20318;-62
2021/04/19 05:04:51;;;;;;;30.27;21.53;;;;;;;;;;4329154;33;20211;-61
2021/04/19 05:07:18;;;;;;;33.43;21.47;;;;;;;;;;4330072;33;20340;-62
2021/04/19 05:09:46;;;;;;;29.73;21.23;;;;;;;;;;4329297;33;20211;-63
2021/04/19 05:12:13;;;;;;;32.33;23.43;;;;;;;;;;4329559;33;20321;-62
2021/04/19 05:14:39;;;;;;;31.70;24.97;;;;;;;;;;4328957;33;20744;-62
2021/04/19 05:17:05;;;;;;;29.90;21.07;;;;;;;;;;4329935;33;20243;-63
2021/04/19 05:19:31;;;;;;;34.57;22.90;;;;;;;;;;4328997;33;20274;-62
2021/04/19 05:21:56;;;;;;;49.00;31.20;;;;;;;;;;4329823;33;20298;-62
2021/04/19 05:24:22;;;;;;;58.43;40.73;;;;;;;;;;4329103;33;20396;-61
2021/04/19 05:26:48;;;;;;;44.43;28.27;;;;;;;;;;4328177;33;20257;-61
2021/04/19 05:29:13;;;;;;;40.37;25.00;;;;;;;;;;4328936;33;20512;-60
2021/04/19 05:31:40;;;;;;;24.17;20.33;;;;;;;;;;4329460;33;20639;-60
2021/04/19 05:34:05;;;;;;;26.17;18.83;;;;;;;;;;4328808;33;20202;-61
2021/04/19 05:36:31;;;;;;;31.87;22.40;;;;;;;;;;4329632;33;20266;-53
2021/04/19 05:38:57;;;;;;;36.53;26.13;;;;;;;;;;4328649;33;20249;-53
2021/04/19 05:41:23;;;;;;;43.33;30.07;;;;;;;;;;4328948;33;20290;-53
2021/04/19 05:43:49;;;;;;;57.60;41.70;;;;;;;;;;4314872;33;20621;-63
2021/04/19 05:46:16;;;;;;;54.20;37.00;;;;;;;;;;4329175;33;20297;-62
2021/04/19 05:48:42;;;;;;;53.37;35.73;;;;;;;;;;4327267;33;20246;-61
2021/04/19 05:51:42;;;;;;;46.83;33.87;;;;;;;;;;4313429;33;20329;-61
2021/04/19 05:54:09;;;;;;;48.13;34.13;;;;;;;;;;4326304;33;20495;-61
2021/04/19 05:56:34;;;;;;;45.77;34.47;;;;;;;;;;4326758;33;20240;-62
2021/04/19 05:59:09;;;;;;;44.93;34.37;;;;;;;;;;4326131;33;20249;-62
2021/04/19 06:01:39;;;;;;;38.83;28.03;;;;;;;;;;4327156;33;20502;-62
2021/04/19 06:04:11;;;;;;;31.23;23.73;;;;;;;;;;4327369;33;20341;-61
2021/04/19 06:06:40;;;;;;;36.07;26.60;;;;;;;;;;4315397;33;20369;-60
2021/04/19 06:09:08;;;;;;;58.03;37.00;;;;;;;;;;4328145;33;20196;-63
2021/04/19 06:11:51;;;;;;;55.60;38.20;;;;;;;;;;4327625;33;20246;-63
2021/04/19 06:14:20;;;;;;;42.80;29.63;;;;;;;;;;4328228;33;20308;-64
2021/04/19 06:16:46;;;;;;;38.90;28.20;;;;;;;;;;4329134;33;20618;-63
2021/04/19 06:19:16;;;;;;;32.77;23.90;;;;;;;;;;4328151;33;20271;-63
2021/04/19 06:21:43;;;;;;;28.00;21.47;;;;;;;;;;4328955;33;20300;-61
2021/04/19 06:24:10;;;;;;;36.33;27.27;;;;;;;;;;4327523;33;20284;-61
2021/04/19 06:26:37;;;;;;;33.07;23.07;;;;;;;;;;4328858;33;20218;-62
2021/04/19 06:29:04;;;;;;;42.53;29.90;;;;;;;;;;4327714;33;20903;-62
2021/04/19 06:31:32;;;;;;;55.33;42.83;;;;;;;;;;4328537;33;20258;-63
2021/04/19 06:34:09;;;;;;;52.60;43.27;;;;;;;;;;4327945;33;20608;-63
2021/04/19 06:36:42;;;;;;;41.23;29.17;;;;;;;;;;4328477;33;20246;-62
2021/04/19 06:39:10;;;;;;;36.80;27.03;;;;;;;;;;4327439;33;20218;-61
2021/04/19 06:41:36;;;;;;;37.70;26.90;;;;;;;;;;4323627;33;20289;-63
2021/04/19 06:44:02;;;;;;;39.20;31.10;;;;;;;;;;4327942;33;20309;-62
2021/04/19 06:46:33;;;;;;;35.13;27.17;;;;;;;;;;4328546;33;20358;-63
2021/04/19 06:48:59;;;;;;;29.13;24.03;;;;;;;;;;4326857;33;20298;-62
2021/04/19 06:51:25;;;;;;;35.33;29.00;;;;;;;;;;4321705;33;20309;-63
2021/04/19 06:53:55;;;;;;;40.50;30.43;;;;;;;;;;4327790;33;20637;-63
2021/04/19 06:56:33;;;;;;;24.33;20.37;;;;;;;;;;4328226;33;20257;-62
2021/04/19 06:58:59;;;;;;;16.50;13.97;;;;;;;;;;4326623;33;20621;-62
2021/04/19 07:01:28;;;;;;;18.13;15.07;;;;;;;;;;4328378;33;20325;-63
2021/04/19 07:04:05;;;;;;;19.03;14.53;;;;;;;;;;4319704;33;20281;-62
2021/04/19 07:06:36;;;;;;;14.57;12.90;;;;;;;;;;4327784;33;20277;-61
2021/04/19 07:09:24;;;;;;;17.07;13.97;;;;;;;;;;4327234;33;20211;-61
2021/04/19 07:12:03;;;;;;;16.67;14.23;;;;;;;;;;4327933;33;20257;-63
2021/04/19 07:14:30;;;;;;;20.27;15.10;;;;;;;;;;4324344;33;20245;-63
2021/04/19 07:16:56;;;;;;;21.90;16.87;;;;;;;;;;4328357;33;20239;-63
2021/04/19 07:19:23;;;;;;;27.10;18.07;;;;;;;;;;4323896;33;20257;-62
2021/04/19 07:21:49;;;;;;;23.00;17.73;;;;;;;;;;4328122;33;20292;-62
2021/04/19 07:24:15;;;;;;;29.47;22.40;;;;;;;;;;4326718;33;20219;-62
2021/04/19 07:26:42;;;;;;;26.63;20.63;;;;;;;;;;4327298;33;20254;-63
2021/04/19 07:29:08;;;;;;;23.83;20.63;;;;;;;;;;4321942;33;20306;-61
2021/04/19 07:31:53;;;;;;;25.37;20.43;;;;;;;;;;4314254;33;20305;-62
2021/04/19 07:34:24;;;;;;;22.80;17.93;;;;;;;;;;4322031;33;20309;-63
2021/04/19 07:36:53;;;;;;;30.10;20.97;;;;;;;;;;4327963;33;20537;-62
2021/04/19 07:39:21;;;;;;;24.17;17.53;;;;;;;;;;4327407;33;20362;-61
2021/04/19 07:41:52;;;;;;;26.20;20.40;;;;;;;;;;4328253;33;20329;-63
2021/04/19 07:44:52;;;;;;;30.30;23.33;;;;;;;;;;4326686;33;20235;-62
2021/04/19 07:47:38;;;;;;;22.40;18.27;;;;;;;;;;4327778;33;20238;-61
2021/04/19 07:50:23;;;;;;;19.37;17.27;;;;;;;;;;4327418;33;20219;-61
2021/04/19 07:53:05;;;;;;;29.50;25.23;;;;;;;;;;4327461;33;20218;-61
2021/04/19 07:55:42;;;;;;;18.80;15.63;;;;;;;;;;4327274;33;20203;-61
2021/04/19 07:58:17;;;;;;;19.00;13.87;;;;;;;;;;4327160;33;20617;-62
2021/04/19 08:00:42;;;;;;;29.23;20.27;;;;;;;;;;4327744;33;20219;-62
2021/04/19 08:03:15;;;;;;;24.27;17.37;;;;;;;;;;4327546;33;20286;-61
2021/04/19 08:05:48;;;;;;;21.63;17.57;;;;;;;;;;4327461;33;20227;-62
2021/04/19 08:08:17;;;;;;;16.03;14.17;;;;;;;;;;4325806;33;20235;-62
2021/04/19 08:10:45;;;;;;;18.33;13.57;;;;;;;;;;4327217;33;20582;-61
2021/04/19 08:13:14;;;;;;;16.17;14.07;;;;;;;;;;4325965;33;20247;-63
2021/04/19 08:15:44;;;;;;;16.40;14.60;;;;;;;;;;4327522;33;20207;-61
2021/04/19 08:18:13;;;;;;;21.13;15.50;;;;;;;;;;4327090;33;20262;-62
2021/04/19 08:20:53;;;;;;;25.00;18.27;;;;;;;;;;4327512;33;20491;-61
2021/04/19 08:23:21;;;;;;;18.93;14.73;;;;;;;;;;4327535;33;20313;-62
2021/04/19 08:25:49;;;;;;;50.97;39.37;;;;;;;;;;4327258;33;20290;-62
2021/04/19 08:28:28;;;;;;;26.63;21.53;;;;;;;;;;4327289;33;20219;-53
2021/04/19 08:30:57;;;;;;;29.23;22.23;;;;;;;;;;4327788;33;20250;-54
2021/04/19 08:33:24;;;;;;;24.77;18.37;;;;;;;;;;4326548;33;20685;-54
2021/04/19 08:35:50;;;;;;;16.90;13.93;;;;;;;;;;4326071;33;20266;-53
2021/04/19 08:38:22;;;;;;;25.83;18.17;;;;;;;;;;4325034;33;20298;-52
2021/04/19 08:40:50;;;;;;;14.87;11.60;;;;;;;;;;4327233;33;20637;-54
2021/04/19 08:43:22;;;;;;;49.60;34.53;;;;;;;;;;4326679;33;20313;-53
2021/04/19 08:45:48;;;;;;;18.07;13.53;;;;;;;;;;4310104;33;20253;-53
2021/04/19 08:48:14;;;;;;;19.30;13.13;;;;;;;;;;4330013;33;20219;-53
2021/04/19 08:50:42;;;;;;;17.70;13.50;;;;;;;;;;4330210;33;20515;-53
2021/04/19 08:53:13;;;;;;;14.50;10.97;;;;;;;;;;4330189;33;20238;-53
2021/04/19 08:55:41;;;;;;;12.83;10.67;;;;;;;;;;4329876;33;20264;-54
2021/04/19 08:58:09;;;;;;;12.43;10.73;;;;;;;;;;4331656;33;20262;-53
2021/04/19 09:00:40;;;;;;;10.47;7.67;;;;;;;;;;4332025;33;20211;-60
2021/04/19 09:03:07;;;;;;;17.60;12.37;;;;;;;;;;4331340;33;20238;-53
2021/04/19 09:05:33;;;;;;;20.37;13.57;;;;;;;;;;4331947;33;20580;-60
2021/04/19 09:08:10;;;;;;;16.70;11.77;;;;;;;;;;4330466;33;20421;-61
2021/04/19 09:11:01;;;;;;;19.53;12.67;;;;;;;;;;4330486;33;20227;-61
2021/04/19 09:13:37;;;;;;;36.43;19.10;;;;;;;;;;4324277;33;20336;-62
2021/04/19 09:16:23;;;;;;;17.83;13.63;;;;;;;;;;4328548;33;20407;-62
2021/04/19 09:18:57;;;;;;;14.30;12.10;;;;;;;;;;4330013;33;20211;-61
2021/04/19 09:21:36;;;;;;;13.47;10.43;;;;;;;;;;4316269;33;20223;-61
2021/04/19 09:24:10;;;;;;;18.43;11.03;;;;;;;;;;4329668;33;20262;-61
2021/04/19 09:26:56;;;;;;;19.90;10.30;;;;;;;;;;4329763;33;20232;-61
2021/04/19 09:29:24;;;;;;;14.10;9.97;;;;;;;;;;4329538;33;20231;-61
2021/04/19 09:32:06;;;;;;;19.37;13.60;;;;;;;;;;4330008;33;20253;-61
2021/04/19 09:34:45;;;;;;;17.97;13.53;;;;;;;;;;4329221;33;20207;-62
2021/04/19 09:37:13;;;;;;;18.90;14.37;;;;;;;;;;4329315;33;20254;-62
2021/04/19 09:40:02;;;;;;;11.27;8.37;;;;;;;;;;4329166;33;20306;-61
2021/04/19 09:43:14;;;;;;;12.87;7.70;;;;;;;;;;4329251;33;20227;-61
2021/04/19 09:45:45;;;;;;;9.57;7.77;;;;;;;;;;4328124;33;20254;-62
2021/04/19 09:48:30;;;;;;;11.50;8.80;;;;;;;;;;4327848;33;20251;-61
2021/04/19 09:51:05;;;;;;;19.53;10.90;;;;;;;;;;4326779;33;20558;-62
2021/04/19 09:53:31;;;;;;;11.83;8.17;;;;;;;;;;4327765;33;20284;-62
2021/04/19 09:55:57;;;;;;;10.47;9.00;;;;;;;;;;4311935;33;20625;-62
2021/04/19 09:58:23;;;;;;;13.93;10.00;;;;;;;;;;4324691;33;20231;-62
2021/04/19 10:00:59;;;;;;;12.77;9.70;;;;;;;;;;4329622;33;20664;-60
2021/04/19 10:03:25;;;;;;;13.50;9.37;;;;;;;;;;4329171;33;20297;-61
2021/04/19 10:05:53;;;;;;;9.73;7.20;;;;;;;;;;4328424;33;20231;-63
2021/04/19 10:08:21;;;;;;;9.67;6.93;;;;;;;;;;4328550;33;20328;-63
2021/04/19 10:10:54;;;;;;;8.90;6.93;;;;;;;;;;4328810;33;20326;-62
2021/04/19 10:13:31;;;;;;;18.30;12.40;;;;;;;;;;4315206;33;20239;-61
2021/04/19 10:16:11;;;;;;;6.03;4.90;;;;;;;;;;4329116;33;20709;-64
2021/04/19 10:18:39;;;;;;;9.30;6.37;;;;;;;;;;4328738;33;20627;-61
2021/04/19 10:21:05;;;;;;;7.43;5.33;;;;;;;;;;4328473;33;20227;-62
2021/04/19 10:23:33;;;;;;;7.93;5.90;;;;;;;;;;4328630;33;20304;-61
2021/04/19 10:25:58;;;;;;;5.37;4.87;;;;;;;;;;4328855;33;20292;-61
2021/04/19 10:28:39;;;;;;;11.07;7.63;;;;;;;;;;4328535;33;20569;-62
2021/04/19 10:31:05;;;;;;;41.50;28.43;;;;;;;;;;4328553;33;20291;-60
2021/04/19 10:33:31;;;;;;;71.87;43.63;;;;;;;;;;4315235;33;20308;-62
2021/04/19 10:35:57;;;;;;;13.17;9.87;;;;;;;;;;4328711;33;20297;-62
2021/04/19 10:38:29;;;;;;;10.10;7.03;;;;;;;;;;4328424;33;20298;-62
2021/04/19 10:41:00;;;;;;;171.93;93.17;;;;;;;;;;4327572;33;20239;-63
2021/04/19 10:43:26;;;;;;;192.83;105.47;;;;;;;;;;4315360;33;20342;-62
2021/04/19 10:45:51;;;;;;;256.83;159.73;;;;;;;;;;4315141;33;20302;-63
2021/04/19 10:48:24;;;;;;;134.43;92.80;;;;;;;;;;4328732;33;20301;-63
2021/04/19 10:50:52;;;;;;;26.67;19.97;;;;;;;;;;4328081;33;20617;-63
2021/04/19 10:53:39;;;;;;;23.33;15.07;;;;;;;;;;4328098;33;20301;-64
2021/04/19 10:56:05;;;;;;;11.30;8.03;;;;;;;;;;4323784;33;20215;-61
2021/04/19 10:58:33;;;;;;;26.97;17.57;;;;;;;;;;4325109;33;20585;-64
2021/04/19 11:00:59;;;;;;;21.40;16.37;;;;;;;;;;4327691;33;20211;-64
2021/04/19 11:03:33;;;;;;;23.50;15.97;;;;;;;;;;4328457;33;20231;-63
2021/04/19 11:06:08;;;;;;;32.70;23.17;;;;;;;;;;4327955;33;20222;-63
2021/04/19 11:09:15;;;;;;;19.63;13.63;;;;;;;;;;4328347;33;20225;-65
2021/04/19 11:11:45;;;;;;;15.60;7.83;;;;;;;;;;4328404;33;20616;-63
2021/04/19 11:14:25;;;;;;;16.83;13.23;;;;;;;;;;4328052;33;20565;-64
2021/04/19 11:17:02;;;;;;;13.40;9.87;;;;;;;;;;4328140;33;20210;-53
2021/04/19 11:19:42;;;;;;;10.93;8.77;;;;;;;;;;4327748;33;20311;-53
2021/04/19 11:22:26;;;;;;;12.80;7.83;;;;;;;;;;4314327;33;20265;-52
2021/04/19 11:24:55;;;;;;;10.97;7.57;;;;;;;;;;4314669;33;20277;-53
2021/04/19 11:27:27;;;;;;;15.50;8.97;;;;;;;;;;4314719;33;20257;-52
2021/04/19 11:29:53;;;;;;;14.00;10.57;;;;;;;;;;4314589;33;20233;-53
2021/04/19 11:32:31;;;;;;;13.20;8.80;;;;;;;;;;4327984;33;20669;-53
2021/04/19 11:34:57;;;;;;;15.23;8.87;;;;;;;;;;4328110;33;20301;-52
2021/04/19 11:37:36;;;;;;;16.27;9.30;;;;;;;;;;4314816;33;20292;-52
2021/04/19 11:40:04;;;;;;;10.90;7.40;;;;;;;;;;4327996;33;20318;-53
2021/04/19 11:42:35;;;;;;;9.47;7.03;;;;;;;;;;4328395;33;20223;-53
2021/04/19 11:45:03;;;;;;;9.53;7.23;;;;;;;;;;4328176;33;20277;-53
2021/04/19 11:47:29;;;;;;;8.83;6.47;;;;;;;;;;4327205;33;20242;-53
2021/04/19 11:49:57;;;;;;;12.00;8.70;;;;;;;;;;4319699;33;20211;-53
2021/04/19 11:52:23;;;;;;;15.30;11.20;;;;;;;;;;4313915;33;20519;-52
2021/04/19 11:54:48;;;;;;;12.70;9.27;;;;;;;;;;4313220;33;20235;-53
2021/04/19 11:57:14;;;;;;;19.07;12.13;;;;;;;;;;4324640;33;20294;-52
2021/04/19 11:59:40;;;;;;;7.97;6.00;;;;;;;;;;4328363;33;20215;-52
2021/04/19 12:02:08;;;;;;;13.63;10.27;;;;;;;;;;4328216;33;20606;-52
2021/04/19 12:04:34;;;;;;;11.53;9.20;;;;;;;;;;4326648;33;20266;-52
2021/04/19 12:07:00;;;;;;;14.10;10.67;;;;;;;;;;4327861;33;20274;-53
2021/04/19 12:09:25;;;;;;;22.73;16.20;;;;;;;;;;4327667;33;20687;-52
2021/04/19 12:11:51;;;;;;;23.10;15.00;;;;;;;;;;4327841;33;20613;-53
2021/04/19 12:14:17;;;;;;;14.97;8.53;;;;;;;;;;4327896;33;20282;-53
2021/04/19 12:16:43;;;;;;;11.93;7.40;;;;;;;;;;4328196;33;20223;-53
2021/04/19 12:19:08;;;;;;;8.10;5.67;;;;;;;;;;4324386;33;20309;-52
2021/04/19 12:21:34;;;;;;;13.27;6.67;;;;;;;;;;4314894;33;20318;-52
2021/04/19 12:24:00;;;;;;;16.83;7.63;;;;;;;;;;4315027;33;20219;-53
2021/04/19 12:26:26;;;;;;;8.97;7.00;;;;;;;;;;4316136;33;20766;-53
2021/04/19 12:28:51;;;;;;;7.47;6.23;;;;;;;;;;4316311;33;20406;-53
2021/04/19 12:31:17;;;;;;;15.73;10.90;;;;;;;;;;4316278;33;20559;-65
2021/04/19 12:33:43;;;;;;;24.77;14.37;;;;;;;;;;4302771;33;20244;-65
2021/04/19 12:36:09;;;;;;;26.40;15.17;;;;;;;;;;4302605;33;20743;-64
2021/04/19 12:38:35;;;;;;;23.93;15.87;;;;;;;;;;4311520;33;20257;-65
2021/04/19 12:41:01;;;;;;;24.47;15.90;;;;;;;;;;4317371;33;20306;-64
2021/04/19 12:43:26;;;;;;;93.40;51.73;;;;;;;;;;4330534;33;20318;-64
2021/04/19 12:45:52;;;;;;;32.80;19.67;;;;;;;;;;4329338;33;20325;-65
2021/04/19 12:48:18;;;;;;;46.23;27.37;;;;;;;;;;4329607;33;20230;-65
2021/04/19 12:50:43;;;;;;;80.93;42.47;;;;;;;;;;4317646;33;20266;-64
2021/04/19 12:53:09;;;;;;;23.73;14.30;;;;;;;;;;4316019;33;20258;-66
2021/04/19 12:55:37;;;;;;;54.97;29.47;;;;;;;;;;4317247;33;20692;-66
2021/04/19 12:58:03;;;;;;;54.80;24.90;;;;;;;;;;4330745;33;20628;-67
2021/04/19 13:00:29;;;;;;;116.47;54.53;;;;;;;;;;4330815;33;20211;-65
2021/04/19 13:02:55;;;;;;;100.33;49.50;;;;;;;;;;4329670;33;20246;-66
2021/04/19 13:05:20;;;;;;;118.63;56.57;;;;;;;;;;4330454;33;20388;-65
2021/04/19 13:07:48;;;;;;;28.37;17.53;;;;;;;;;;4317250;33;20261;-66
2021/04/19 13:10:14;;;;;;;67.70;37.67;;;;;;;;;;4317444;33;20338;-66
2021/04/19 13:12:40;;;;;;;44.17;26.17;;;;;;;;;;4317137;33;20718;-66
2021/04/19 13:15:08;;;;;;;30.47;19.10;;;;;;;;;;4330636;33;20290;-64
2021/04/19 13:17:34;;;;;;;15.60;10.30;;;;;;;;;;4317107;33;20242;-65
2021/04/19 13:20:01;;;;;;;25.30;16.57;;;;;;;;;;4329199;33;20336;-65
2021/04/19 13:22:27;;;;;;;61.83;33.93;;;;;;;;;;4330390;33;20290;-66
2021/04/19 13:24:52;;;;;;;33.97;21.43;;;;;;;;;;4330233;33;20506;-66
2021/04/19 13:27:18;;;;;;;38.27;21.93;;;;;;;;;;4330522;33;20572;-66
2021/04/19 13:29:44;;;;;;;79.77;41.17;;;;;;;;;;4330105;33;20625;-66
2021/04/19 13:32:10;;;;;;;31.07;19.83;;;;;;;;;;4329147;33;20289;-66
2021/04/19 13:34:37;;;;;;;17.27;11.73;;;;;;;;;;4329968;33;20603;-66
2021/04/19 13:37:03;;;;;;;31.57;18.97;;;;;;;;;;4330129;33;20723;-66
2021/04/19 13:39:30;;;;;;;18.60;10.17;;;;;;;;;;4316591;33;20235;-67
2021/04/19 13:41:55;;;;;;;11.87;9.87;;;;;;;;;;4316388;33;20269;-66
2021/04/19 13:44:21;;;;;;;11.57;8.47;;;;;;;;;;4329567;33;20211;-67
2021/04/19 13:46:46;;;;;;;10.93;8.67;;;;;;;;;;4329551;33;20763;-66
2021/04/19 13:49:12;;;;;;;16.87;13.20;;;;;;;;;;4329628;33;20245;-67
2021/04/19 13:51:38;;;;;;;16.87;13.67;;;;;;;;;;4316592;33;20630;-67
2021/04/19 13:54:04;;;;;;;16.00;12.70;;;;;;;;;;4329853;33;20270;-66
2021/04/19 13:56:30;;;;;;;24.07;13.13;;;;;;;;;;4328582;33;20310;-66
2021/04/19 13:58:55;;;;;;;38.63;32.47;;;;;;;;;;4328538;33;20565;-67
2021/04/19 14:01:21;;;;;;;30.33;22.53;;;;;;;;;;4328966;33;20326;-66
2021/04/19 14:03:46;;;;;;;32.13;22.43;;;;;;;;;;4329716;33;20316;-67
2021/04/19 14:06:11;;;;;;;17.03;12.87;;;;;;;;;;4329296;33;20693;-65
2021/04/19 14:08:37;;;;;;;13.77;10.40;;;;;;;;;;4329572;33;20215;-65
2021/04/19 14:11:02;;;;;;;15.20;10.57;;;;;;;;;;4329854;33;20703;-63
2021/04/19 14:13:28;;;;;;;18.93;13.30;;;;;;;;;;4330000;33;20246;-64
2021/04/19 14:15:54;;;;;;;26.50;17.37;;;;;;;;;;4329907;33;20715;-63
2021/04/19 14:18:19;;;;;;;34.97;23.03;;;;;;;;;;4329566;33;20227;-63
2021/04/19 14:20:46;;;;;;;32.43;22.00;;;;;;;;;;4325468;33;20632;-64
2021/04/19 14:23:12;;;;;;;36.23;24.30;;;;;;;;;;4315063;33;20250;-65
2021/04/19 14:25:38;;;;;;;27.50;18.97;;;;;;;;;;4314933;33;20287;-63
2021/04/19 14:28:03;;;;;;;19.97;16.27;;;;;;;;;;4314881;33;20656;-63
2021/04/19 14:30:29;;;;;;;15.17;12.33;;;;;;;;;;4314821;33;20191;-64
2021/04/19 14:32:54;;;;;;;11.37;7.67;;;;;;;;;;4320579;33;20242;-65